createdAt,value
2023-01-19T00:03:15.932Z,99177.09
2023-01-19T00:08:18.753Z,99166.78
2023-01-19T00:13:19.852Z,99170.09
2023-01-19T00:18:20.529Z,99183.75
2023-01-19T00:23:22.736Z,99181.13
2023-01-19T00:28:23.368Z,99190.53
2023-01-19T00:33:24.322Z,99194.75
2023-01-19T00:38:26.427Z,99198.94
2023-01-19T00:43:28.211Z,99204.88
2023-01-19T00:48:29.510Z,99206.31
2023-01-19T00:53:32.600Z,99214.03
2023-01-19T00:58:33.520Z,99220.00
2023-01-19T01:03:34.224Z,99223.38
2023-01-19T01:08:36.308Z,99228.38
2023-01-19T01:13:36.999Z,99209.63
2023-01-19T01:18:37.666Z,99228.25
2023-01-19T01:23:39.852Z,99234.22
2023-01-19T01:28:40.506Z,99240.91
2023-01-19T01:33:42.030Z,99241.78
2023-01-19T01:38:44.148Z,99240.84
2023-01-19T01:43:47.270Z,99228.91
2023-01-19T01:48:53.623Z,99239.94
2023-01-19T01:54:06.806Z,99244.13
2023-01-19T01:59:10.380Z,99255.13
2023-01-19T02:04:11.072Z,99263.50
2023-01-19T02:09:30.661Z,99259.22
2023-01-19T02:14:31.335Z,99258.28
2023-01-19T02:19:41.789Z,99256.59
2023-01-19T02:24:44.258Z,99259.88
2023-01-19T02:29:45.004Z,99258.03
2023-01-19T02:34:45.791Z,99274.19
2023-01-19T02:39:52.618Z,99271.59
2023-01-19T02:44:56.582Z,99272.94
2023-01-19T02:49:58.095Z,99273.88
2023-01-19T02:55:15.329Z,99285.66
2023-01-19T03:00:25.664Z,99283.06
2023-01-19T03:05:52.542Z,99283.00
2023-01-19T03:11:01.720Z,99288.91
2023-01-19T03:16:07.989Z,99292.25
2023-01-19T03:21:10.381Z,99302.53
2023-01-19T03:26:17.086Z,99313.53
2023-01-19T03:31:22.124Z,99320.19
2023-01-19T03:36:28.609Z,99318.44
2023-01-19T03:41:32.565Z,99324.44
2023-01-19T03:46:34.879Z,99316.75
2023-01-19T03:51:38.985Z,99323.41
2023-01-19T03:56:40.963Z,99325.00
2023-01-19T04:01:41.705Z,99323.28
2023-01-19T04:06:42.547Z,99336.84
2023-01-19T04:11:44.533Z,99346.03
2023-01-19T04:16:45.199Z,99339.22
2023-01-19T04:21:45.869Z,99336.66
2023-01-19T04:26:47.940Z,99324.63
2023-01-19T04:31:48.586Z,99321.22
2023-01-19T04:36:51.095Z,99325.41
2023-01-19T04:41:53.089Z,99324.47
2023-01-19T04:46:54.064Z,99333.72
2023-01-19T04:51:54.829Z,99341.19
2023-01-19T04:56:57.185Z,99338.66
2023-01-19T05:01:57.859Z,99329.31
2023-01-19T05:06:59.187Z,99330.94
2023-01-19T05:12:01.216Z,99340.03
2023-01-19T05:17:03.264Z,99335.34
2023-01-19T05:22:04.882Z,99327.69
2023-01-19T05:27:06.876Z,99321.69
2023-01-19T05:32:07.586Z,99325.78
2023-01-19T05:37:08.579Z,99327.25
2023-01-19T05:42:10.581Z,99326.28
2023-01-19T05:47:11.816Z,99328.53
2023-01-19T05:52:12.542Z,99322.53
2023-01-19T05:57:14.797Z,99322.38
2023-01-19T06:02:15.514Z,99332.44
2023-01-19T06:07:16.166Z,99338.41
2023-01-19T06:12:18.257Z,99334.09
2023-01-19T06:17:19.044Z,99341.69
2023-01-19T06:22:19.748Z,99344.16
2023-01-19T06:27:21.903Z,99352.69
2023-01-19T06:32:22.644Z,99371.28
2023-01-19T06:37:25.138Z,99372.94
2023-01-19T06:42:27.211Z,99378.03
2023-01-19T06:47:27.974Z,99379.63
2023-01-19T06:52:28.775Z,99389.00
2023-01-19T06:57:30.756Z,99394.78
2023-01-19T07:02:31.624Z,99401.59
2023-01-19T07:07:32.522Z,99400.53
2023-01-19T07:12:34.671Z,99401.56
2023-01-19T07:17:35.883Z,99405.13
2023-01-19T07:22:36.542Z,99403.47
2023-01-19T07:27:38.532Z,99412.13
2023-01-19T07:32:39.296Z,99418.16
2023-01-19T07:37:39.980Z,99416.50
2023-01-19T07:42:48.581Z,99407.97
2023-01-19T07:47:51.136Z,99423.38
2023-01-19T07:52:53.529Z,99417.69
2023-01-19T07:57:55.558Z,99427.19
2023-01-19T08:03:00.844Z,99417.25
2023-01-19T08:08:01.907Z,99431.94
2023-01-19T08:13:04.103Z,99436.44
2023-01-19T08:18:06.224Z,99440.78
2023-01-19T08:23:07.126Z,99445.31
2023-01-19T08:28:10.499Z,99452.31
2023-01-19T08:33:12.001Z,99449.16
2023-01-19T08:38:12.815Z,99455.22
2023-01-19T08:43:17.538Z,99451.84
2023-01-19T08:48:20.100Z,99452.91
2023-01-19T08:53:23.701Z,99459.13
2023-01-19T08:58:25.869Z,99454.25
2023-01-19T09:03:26.640Z,99450.13
2023-01-19T09:08:27.485Z,99441.16
2023-01-19T09:13:29.537Z,99441.44
2023-01-19T09:18:30.555Z,99445.00
2023-01-19T09:23:31.590Z,99451.75
2023-01-19T09:28:34.456Z,99445.34
2023-01-19T09:33:35.802Z,99451.59
2023-01-19T09:38:36.532Z,99449.22
2023-01-19T09:43:42.689Z,99440.94
2023-01-19T09:48:49.094Z,99436.97
2023-01-19T09:53:56.623Z,99428.66
2023-01-19T09:59:00.114Z,99437.28
2023-01-19T10:04:18.514Z,99444.22
2023-01-19T10:09:24.762Z,99439.28
2023-01-19T10:14:35.207Z,99430.75
2023-01-19T10:19:39.118Z,99425.75
2023-01-19T10:24:42.677Z,99423.69
2023-01-19T10:29:46.261Z,99419.25
2023-01-19T10:34:47.370Z,99417.56
2023-01-19T10:39:53.905Z,99410.88
2023-01-19T10:44:56.113Z,99416.06
2023-01-19T10:49:57.016Z,99412.75
2023-01-19T10:54:59.320Z,99401.72
2023-01-19T11:00:01.334Z,99408.66
2023-01-19T11:05:22.035Z,99406.13
2023-01-19T11:10:25.019Z,99415.63
2023-01-19T11:15:32.896Z,99404.59
2023-01-19T11:20:49.734Z,99406.38
2023-01-19T11:25:52.739Z,99398.69
2023-01-19T11:31:00.288Z,99397.03
2023-01-19T11:36:07.266Z,99404.78
2023-01-19T11:41:17.866Z,99413.31
2023-01-19T11:46:20.664Z,99406.50
2023-01-19T11:51:23.160Z,99409.13
2023-01-19T11:56:28.230Z,99400.59
2023-01-19T12:01:34.169Z,99406.59
2023-01-19T12:06:38.757Z,99398.91
2023-01-19T12:11:44.704Z,99406.63
2023-01-19T12:16:48.727Z,99404.91
2023-01-19T12:21:49.866Z,99397.25
2023-01-19T12:26:55.366Z,99396.41
2023-01-19T12:32:19.807Z,99403.22
2023-01-19T12:37:37.744Z,99392.94
2023-01-19T12:42:45.500Z,99392.94
2023-01-19T12:47:53.396Z,99388.66
2023-01-19T12:52:58.417Z,99382.66
2023-01-19T12:58:02.731Z,99380.94
2023-01-19T13:03:28.650Z,99375.78
2023-01-19T13:08:45.857Z,99378.41
2023-01-19T13:14:30.595Z,99372.38
2023-01-19T13:19:44.940Z,99367.25
2023-01-19T13:25:07.910Z,99365.50
2023-01-19T13:30:13.641Z,99363.78
2023-01-19T13:35:19.003Z,99368.97
2023-01-19T13:40:23.625Z,99368.09
2023-01-19T13:45:34.227Z,99361.19
2023-01-19T13:50:38.660Z,99361.25
2023-01-19T13:55:39.431Z,99362.94
2023-01-19T14:00:41.578Z,99373.22
2023-01-19T14:05:45.324Z,99375.81
2023-01-19T14:10:48.845Z,99378.38
2023-01-19T14:15:51.895Z,99378.38
2023-01-19T14:20:55.960Z,99386.09
2023-01-19T14:25:57.570Z,99385.25
2023-01-19T14:31:00.146Z,99388.69
2023-01-19T14:36:12.194Z,99383.53
2023-01-19T14:41:13.499Z,99390.41
2023-01-19T14:46:18.486Z,99380.97
2023-01-19T14:51:24.008Z,99390.38
2023-01-19T14:56:26.526Z,99387.78
2023-01-19T15:01:29.390Z,99393.75
2023-01-19T15:06:32.950Z,99398.03
2023-01-19T15:11:35.536Z,99409.91
2023-01-19T15:16:37.508Z,99409.91
2023-01-19T15:21:42.030Z,99406.44
2023-01-19T15:26:43.814Z,99418.31
2023-01-19T15:31:44.783Z,99417.41
2023-01-19T15:36:46.880Z,99431.03
2023-01-19T15:41:47.602Z,99442.94
2023-01-19T15:46:48.275Z,99435.06
2023-01-19T15:51:50.327Z,99440.25
2023-01-19T15:56:52.675Z,99449.72
2023-01-19T16:01:53.466Z,99445.50
2023-01-19T16:06:55.656Z,99450.72
2023-01-19T16:11:57.642Z,99448.28
2023-01-19T16:16:59.939Z,99455.97
2023-01-19T16:22:01.982Z,99464.50
2023-01-19T16:27:03.983Z,99470.53
2023-01-19T16:32:05.209Z,99474.72
2023-01-19T16:37:07.271Z,99483.38
2023-01-19T16:42:07.965Z,99485.06
2023-01-19T16:47:08.773Z,99485.03
2023-01-19T16:52:10.817Z,99489.31
2023-01-19T16:57:12.996Z,99501.31
2023-01-19T17:02:13.768Z,99504.78
2023-01-19T17:07:18.183Z,99498.75
2023-01-19T17:12:19.639Z,99493.69
2023-01-19T17:17:20.339Z,99502.19
2023-01-19T17:22:22.413Z,99510.72
2023-01-19T17:27:23.137Z,99511.56
2023-01-19T17:32:23.795Z,99514.09
2023-01-19T17:37:25.976Z,99508.06
2023-01-19T17:42:26.757Z,99515.81
2023-01-19T17:47:27.567Z,99519.31
2023-01-19T17:52:29.909Z,99518.38
2023-01-19T17:57:30.728Z,99531.25
2023-01-19T18:02:31.511Z,99536.56
2023-01-19T18:07:33.588Z,99527.94
2023-01-19T18:12:34.794Z,99532.09
2023-01-19T18:17:36.108Z,99520.06
2023-01-19T18:22:38.203Z,99527.59
2023-01-19T18:27:38.873Z,99525.09
2023-01-19T18:32:39.728Z,99531.06
2023-01-19T18:37:41.797Z,99526.00
2023-01-19T18:42:43.326Z,99532.78
2023-01-19T18:47:44.097Z,99544.78
2023-01-19T18:52:47.208Z,99555.00
2023-01-19T18:57:47.977Z,99556.72
2023-01-19T19:02:48.674Z,99555.00
2023-01-19T19:07:58.500Z,99551.66
2023-01-19T19:12:59.259Z,99558.47
2023-01-19T19:18:00.183Z,99565.31
2023-01-19T19:23:02.249Z,99573.00
2023-01-19T19:28:03.026Z,99571.31
2023-01-19T19:33:04.023Z,99566.16
2023-01-19T19:38:06.322Z,99564.47
2023-01-19T19:43:07.041Z,99579.84
2023-01-19T19:48:07.753Z,99585.84
2023-01-19T19:53:09.779Z,99577.31
2023-01-19T19:58:10.444Z,99586.69
2023-01-19T20:03:13.512Z,99597.81
2023-01-19T20:08:15.676Z,99594.44
2023-01-19T20:13:19.227Z,99600.44
2023-01-19T20:18:19.907Z,99607.34
2023-01-19T20:23:21.939Z,99607.34
2023-01-19T20:28:22.643Z,99612.47
2023-01-19T20:33:23.326Z,99611.63
2023-01-19T20:38:25.332Z,99615.97
2023-01-19T20:43:26.111Z,99619.38
2023-01-19T20:48:27.093Z,99617.59
2023-01-19T20:53:30.395Z,99617.66
2023-01-19T20:58:31.649Z,99615.97
2023-01-19T21:03:34.783Z,99621.09
2023-01-19T21:08:37.211Z,99623.72
2023-01-19T21:13:38.397Z,99635.75
2023-01-19T21:18:39.112Z,99647.72
2023-01-19T21:23:41.211Z,99647.66
2023-01-19T21:28:42.420Z,99659.72
2023-01-19T21:33:44.147Z,99660.56
2023-01-19T21:38:46.333Z,99660.53
2023-01-19T21:43:47.209Z,99660.56
2023-01-19T21:48:48.122Z,99667.41
2023-01-19T21:53:52.388Z,99670.81
2023-01-19T21:58:53.193Z,99675.09
2023-01-19T22:03:55.539Z,99677.66
2023-01-19T22:08:58.446Z,99683.66
2023-01-19T22:14:00.505Z,99678.53
2023-01-19T22:19:02.498Z,99681.94
2023-01-19T22:24:06.104Z,99697.25
2023-01-19T22:29:11.046Z,99693.84
2023-01-19T22:34:11.846Z,99698.09
2023-01-19T22:39:14.051Z,99693.00
2023-01-19T22:44:18.119Z,99702.47
2023-01-19T22:49:19.482Z,99693.00
2023-01-19T22:54:22.981Z,99688.66
2023-01-19T22:59:23.659Z,99690.41
2023-01-19T23:04:24.341Z,99688.72
2023-01-19T23:09:26.368Z,99688.72
2023-01-19T23:14:27.067Z,99696.41
2023-01-19T23:19:27.867Z,99693.84
2023-01-19T23:24:30.496Z,99695.56
2023-01-19T23:29:31.194Z,99694.72
2023-01-19T23:34:31.876Z,99698.13
2023-01-19T23:39:33.914Z,99697.19
2023-01-19T23:44:35.754Z,99688.78
2023-01-19T23:49:36.410Z,99682.81
2023-01-19T23:54:38.585Z,99687.09
2023-01-19T23:59:39.247Z,99694.00
